createdAt,value
2022-10-04T00:00:41.596Z,8.49
2022-10-04T00:03:26.471Z,8.46
2022-10-04T00:05:52.609Z,8.48
2022-10-04T00:08:35.888Z,8.34
2022-10-04T00:11:15.014Z,8.45
2022-10-04T00:13:38.334Z,8.43
2022-10-04T00:16:00.170Z,8.48
2022-10-04T00:18:29.410Z,8.52
2022-10-04T00:20:50.954Z,8.53
2022-10-04T00:23:24.714Z,8.51
2022-10-04T00:25:46.191Z,8.46
2022-10-04T00:28:28.019Z,8.51
2022-10-04T00:31:10.123Z,8.55
2022-10-04T00:33:40.558Z,8.52
2022-10-04T00:36:24.838Z,8.62
2022-10-04T00:39:04.012Z,8.49
2022-10-04T00:41:27.198Z,8.37
2022-10-04T00:43:50.065Z,8.40
2022-10-04T00:46:16.283Z,8.41
2022-10-04T00:48:52.918Z,8.47
2022-10-04T00:51:41.523Z,8.48
2022-10-04T00:54:23.642Z,8.46
2022-10-04T00:56:52.948Z,8.49
2022-10-04T00:59:22.678Z,8.46
2022-10-04T01:01:47.789Z,8.43
2022-10-04T01:04:27.512Z,8.44
2022-10-04T01:06:49.522Z,8.55
2022-10-04T01:09:12.719Z,8.50
2022-10-04T01:11:45.692Z,8.49
2022-10-04T01:14:32.142Z,8.35
2022-10-04T01:16:53.683Z,8.36
2022-10-04T01:19:27.197Z,8.35
2022-10-04T01:22:03.488Z,8.26
2022-10-04T01:24:24.949Z,8.18
2022-10-04T01:26:46.634Z,8.23
2022-10-04T01:29:12.894Z,8.23
2022-10-04T01:31:37.577Z,8.30
2022-10-04T01:34:00.988Z,8.27
2022-10-04T01:36:22.748Z,8.30
2022-10-04T01:38:44.335Z,8.17
2022-10-04T01:41:08.140Z,8.01
2022-10-04T01:43:36.543Z,7.98
2022-10-04T01:46:07.646Z,7.96
2022-10-04T01:48:34.725Z,8.04
2022-10-04T01:51:05.462Z,8.08
2022-10-04T01:53:29.971Z,8.09
2022-10-04T01:55:55.967Z,8.06
2022-10-04T01:58:22.365Z,8.00
2022-10-04T02:00:53.274Z,8.03
2022-10-04T02:03:20.896Z,8.09
2022-10-04T02:05:49.845Z,8.07
2022-10-04T02:08:18.619Z,7.98
2022-10-04T02:10:43.491Z,7.92
2022-10-04T02:13:11.065Z,7.89
2022-10-04T02:15:35.605Z,8.00
2022-10-04T02:17:59.108Z,7.73
2022-10-04T02:20:25.216Z,7.90
2022-10-04T02:22:50.879Z,7.95
2022-10-04T02:25:14.617Z,8.05
2022-10-04T02:27:36.727Z,8.07
2022-10-04T02:30:09.815Z,8.03
2022-10-04T02:33:08.272Z,7.87
2022-10-04T02:35:31.409Z,7.99
2022-10-04T02:38:08.942Z,7.97
2022-10-04T02:40:44.288Z,8.05
2022-10-04T02:43:16.611Z,8.16
2022-10-04T02:45:43.913Z,8.13
2022-10-04T02:48:17.595Z,8.09
2022-10-04T02:50:52.491Z,8.08
2022-10-04T02:53:26.715Z,8.17
2022-10-04T02:55:49.292Z,8.35
2022-10-04T02:58:15.241Z,8.34
2022-10-04T03:00:48.210Z,8.33
2022-10-04T03:03:29.555Z,8.23
2022-10-04T03:05:56.903Z,8.13
2022-10-04T03:08:18.716Z,8.27
2022-10-04T03:10:43.298Z,8.33
2022-10-04T03:13:04.990Z,8.38
2022-10-04T03:15:26.770Z,8.49
2022-10-04T03:17:50.248Z,8.48
2022-10-04T03:20:16.289Z,8.44
2022-10-04T03:22:42.590Z,8.44
2022-10-04T03:25:12.593Z,8.56
2022-10-04T03:27:36.178Z,8.55
2022-10-04T03:29:59.493Z,8.59
2022-10-04T03:32:21.488Z,8.35
2022-10-04T03:34:53.658Z,8.36
2022-10-04T03:37:19.324Z,8.43
2022-10-04T03:39:45.367Z,8.49
2022-10-04T03:42:19.681Z,8.49
2022-10-04T03:44:42.244Z,8.48
2022-10-04T03:47:11.178Z,8.52
2022-10-04T03:49:36.954Z,8.47
2022-10-04T03:52:01.087Z,8.44
2022-10-04T03:54:27.963Z,8.42
2022-10-04T03:56:53.032Z,8.37
2022-10-04T03:59:18.237Z,8.32
2022-10-04T04:01:49.997Z,8.36
2022-10-04T04:04:31.212Z,8.36
2022-10-04T04:07:01.596Z,8.38
2022-10-04T04:09:50.959Z,8.43
2022-10-04T04:12:23.546Z,8.39
2022-10-04T04:14:49.482Z,8.29
2022-10-04T04:17:26.267Z,8.35
2022-10-04T04:19:47.831Z,8.39
2022-10-04T04:22:16.733Z,8.34
2022-10-04T04:24:38.314Z,8.34
2022-10-04T04:27:05.283Z,8.25
2022-10-04T04:29:26.813Z,8.33
2022-10-04T04:31:54.861Z,8.39
2022-10-04T04:34:30.001Z,8.49
2022-10-04T04:36:57.061Z,8.49
2022-10-04T04:39:41.202Z,8.45
2022-10-04T04:42:10.495Z,8.41
2022-10-04T04:44:33.114Z,8.39
2022-10-04T04:46:56.776Z,8.49
2022-10-04T04:49:18.835Z,8.53
2022-10-04T04:51:41.827Z,8.50
2022-10-04T04:54:06.528Z,8.57
2022-10-04T04:56:29.948Z,8.63
2022-10-04T04:58:54.443Z,8.67
2022-10-04T05:01:25.918Z,8.77
2022-10-04T05:04:21.247Z,8.77
2022-10-04T05:06:45.241Z,8.80
2022-10-04T05:09:21.977Z,8.83
2022-10-04T05:11:43.657Z,8.86
2022-10-04T05:14:12.288Z,8.89
2022-10-04T05:16:51.839Z,8.94
2022-10-04T05:19:24.903Z,9.00
2022-10-04T05:21:47.495Z,8.99
2022-10-04T05:24:20.574Z,8.97
2022-10-04T05:26:42.957Z,8.85
2022-10-04T05:29:15.248Z,8.71
2022-10-04T05:31:50.750Z,8.80
2022-10-04T05:34:37.797Z,8.96
2022-10-04T05:37:19.367Z,8.92
2022-10-04T05:39:48.193Z,9.03
2022-10-04T05:42:30.349Z,9.15
2022-10-04T05:44:56.996Z,9.24
2022-10-04T05:47:23.953Z,9.28
2022-10-04T05:49:46.947Z,9.39
2022-10-04T05:52:16.420Z,9.42
2022-10-04T05:54:37.999Z,9.40
2022-10-04T05:57:04.015Z,9.48
2022-10-04T05:59:40.641Z,9.40
2022-10-04T06:02:04.896Z,9.39
2022-10-04T06:04:47.326Z,9.35
2022-10-04T06:07:34.574Z,9.54
2022-10-04T06:09:56.006Z,9.57
2022-10-04T06:12:34.024Z,9.55
2022-10-04T06:15:10.813Z,9.62
2022-10-04T06:17:55.437Z,9.52
2022-10-04T06:20:41.870Z,9.72
2022-10-04T06:23:13.792Z,9.81
2022-10-04T06:25:46.177Z,9.95
2022-10-04T06:28:17.331Z,10.11
2022-10-04T06:31:06.980Z,10.17
2022-10-04T06:33:34.273Z,10.25
2022-10-04T06:36:20.391Z,10.31
2022-10-04T06:38:59.061Z,10.45
2022-10-04T06:41:56.745Z,10.60
2022-10-04T06:44:30.852Z,10.67
2022-10-04T06:47:17.016Z,10.78
2022-10-04T06:49:48.668Z,11.02
2022-10-04T06:52:29.458Z,11.14
2022-10-04T06:55:22.572Z,11.27
2022-10-04T06:58:15.019Z,11.45
2022-10-04T07:00:56.679Z,11.57
2022-10-04T07:03:51.342Z,11.51
2022-10-04T07:06:14.056Z,11.58
2022-10-04T07:08:47.958Z,11.44
2022-10-04T07:11:24.778Z,11.51
2022-10-04T07:13:52.260Z,11.60
2022-10-04T07:16:16.855Z,11.81
2022-10-04T07:19:12.440Z,11.75
2022-10-04T07:21:41.502Z,11.99
2022-10-04T07:24:03.883Z,12.08
2022-10-04T07:26:28.397Z,12.29
2022-10-04T07:29:09.080Z,12.41
2022-10-04T07:31:34.527Z,12.56
2022-10-04T07:34:25.170Z,12.52
2022-10-04T07:36:51.749Z,12.47
2022-10-04T07:39:17.295Z,12.69
2022-10-04T07:41:57.711Z,12.96
2022-10-04T07:44:27.537Z,13.07
2022-10-04T07:47:12.620Z,13.30
2022-10-04T07:49:39.458Z,13.34
2022-10-04T07:52:28.891Z,13.25
2022-10-04T07:55:23.942Z,13.46
2022-10-04T07:58:14.613Z,13.61
2022-10-04T08:00:58.044Z,13.83
2022-10-04T08:04:04.445Z,13.99
2022-10-04T08:06:39.305Z,14.05
2022-10-04T08:09:28.687Z,14.24
2022-10-04T08:12:12.089Z,14.36
2022-10-04T08:14:53.131Z,14.36
2022-10-04T08:17:17.283Z,14.33
2022-10-04T08:19:52.274Z,14.38
2022-10-04T08:22:24.105Z,14.53
2022-10-04T08:24:53.640Z,14.80
2022-10-04T08:28:09.632Z,14.72
2022-10-04T08:30:51.914Z,14.83
2022-10-04T08:33:56.536Z,14.85
2022-10-04T08:36:33.170Z,14.98
2022-10-04T08:38:59.335Z,15.03
2022-10-04T08:42:01.877Z,14.98
2022-10-04T08:44:49.275Z,15.12
2022-10-04T08:47:32.161Z,15.07
2022-10-04T08:50:03.304Z,14.82
2022-10-04T08:52:52.459Z,14.93
2022-10-04T08:55:28.798Z,15.08
2022-10-04T08:58:18.539Z,14.94
2022-10-04T09:01:13.473Z,15.33
2022-10-04T09:04:19.325Z,15.43
2022-10-04T09:07:02.396Z,15.44
2022-10-04T09:09:46.478Z,15.66
2022-10-04T09:12:41.088Z,15.46
2022-10-04T09:15:20.935Z,15.66
2022-10-04T09:17:53.996Z,15.67
2022-10-04T09:20:52.478Z,15.92
2022-10-04T09:23:32.167Z,15.87
2022-10-04T09:26:21.262Z,15.70
2022-10-04T09:29:20.176Z,15.86
2022-10-04T09:32:18.485Z,16.09
2022-10-04T09:34:58.139Z,16.22
2022-10-04T09:37:37.085Z,16.03
2022-10-04T09:40:27.900Z,15.96
2022-10-04T09:43:07.312Z,15.82
2022-10-04T09:45:47.182Z,15.86
2022-10-04T09:48:54.994Z,15.94
2022-10-04T09:51:41.974Z,15.86
2022-10-04T09:54:20.068Z,16.00
2022-10-04T09:57:06.856Z,16.13
2022-10-04T09:59:28.327Z,16.27
2022-10-04T10:02:29.094Z,16.36
2022-10-04T10:05:12.475Z,16.13
2022-10-04T10:07:45.073Z,16.21
2022-10-04T10:10:40.463Z,16.21
2022-10-04T10:13:42.846Z,16.48
2022-10-04T10:16:40.775Z,16.65
2022-10-04T10:19:08.404Z,16.49
2022-10-04T10:21:55.493Z,16.40
2022-10-04T10:24:38.125Z,16.45
2022-10-04T10:27:19.656Z,16.49
2022-10-04T10:30:16.670Z,16.54
2022-10-04T10:33:15.707Z,16.82
2022-10-04T10:36:02.034Z,16.86
2022-10-04T10:38:40.940Z,16.81
2022-10-04T10:41:21.152Z,16.87
2022-10-04T10:43:52.937Z,16.88
2022-10-04T10:46:37.932Z,17.05
2022-10-04T10:49:27.351Z,16.87
2022-10-04T10:52:25.398Z,17.07
2022-10-04T10:55:11.822Z,17.25
2022-10-04T10:57:48.564Z,17.18
2022-10-04T11:00:22.200Z,17.25
2022-10-04T11:03:23.856Z,17.45
2022-10-04T11:06:10.293Z,17.35
2022-10-04T11:08:52.236Z,17.47
2022-10-04T11:11:31.837Z,17.44
2022-10-04T11:14:14.435Z,17.44
2022-10-04T11:17:09.639Z,17.40
2022-10-04T11:19:40.157Z,17.39
2022-10-04T11:22:14.146Z,17.57
2022-10-04T11:24:56.859Z,17.45
2022-10-04T11:27:37.916Z,17.57
2022-10-04T11:30:09.431Z,17.83
2022-10-04T11:33:09.537Z,17.85
2022-10-04T11:35:31.076Z,17.78
2022-10-04T11:38:23.162Z,17.74
2022-10-04T11:40:51.237Z,18.01
2022-10-04T11:43:32.000Z,18.07
2022-10-04T11:46:50.661Z,18.14
2022-10-04T11:49:39.553Z,18.37
2022-10-04T11:52:19.762Z,18.17
2022-10-04T11:55:21.090Z,18.28
2022-10-04T11:57:52.870Z,18.23
2022-10-04T12:00:20.760Z,18.30
2022-10-04T12:03:01.586Z,18.39
2022-10-04T12:05:38.713Z,18.30
2022-10-04T12:08:23.909Z,18.16
2022-10-04T12:11:03.196Z,18.16
2022-10-04T12:13:33.913Z,18.10
2022-10-04T12:16:30.714Z,18.33
2022-10-04T12:19:15.474Z,18.47
2022-10-04T12:21:51.171Z,18.50
2022-10-04T12:24:21.681Z,18.68
2022-10-04T12:26:59.687Z,18.62
2022-10-04T12:29:43.372Z,18.61
2022-10-04T12:32:14.142Z,18.65
2022-10-04T12:35:02.600Z,18.53
2022-10-04T12:37:54.219Z,18.54
2022-10-04T12:40:28.320Z,18.75
2022-10-04T12:42:56.433Z,18.70
2022-10-04T12:45:20.578Z,18.63
2022-10-04T12:47:52.983Z,18.81
2022-10-04T12:50:26.536Z,18.81
2022-10-04T12:53:06.062Z,18.74
2022-10-04T12:55:45.903Z,18.55
2022-10-04T12:58:43.229Z,18.70
2022-10-04T13:01:18.769Z,18.77
2022-10-04T13:04:09.654Z,18.96
2022-10-04T13:06:51.654Z,18.90
2022-10-04T13:09:29.066Z,18.76
2022-10-04T13:12:24.785Z,18.81
2022-10-04T13:15:07.535Z,18.83
2022-10-04T13:17:44.700Z,18.93
2022-10-04T13:20:46.652Z,18.96
2022-10-04T13:23:17.346Z,18.94
2022-10-04T13:25:47.192Z,18.98
2022-10-04T13:28:29.187Z,19.18
2022-10-04T13:31:15.612Z,18.85
2022-10-04T13:34:07.892Z,18.83
2022-10-04T13:36:56.979Z,18.90
2022-10-04T13:39:42.781Z,18.87
2022-10-04T13:42:12.399Z,18.85
2022-10-04T13:45:03.690Z,18.76
2022-10-04T13:47:43.753Z,18.92
2022-10-04T13:50:43.690Z,18.93
2022-10-04T13:53:35.978Z,18.88
2022-10-04T13:56:34.025Z,18.79
2022-10-04T13:59:16.031Z,18.78
2022-10-04T14:01:55.040Z,18.85
2022-10-04T14:04:35.370Z,18.87
2022-10-04T14:07:30.081Z,18.84
2022-10-04T14:10:12.548Z,18.90
2022-10-04T14:13:00.080Z,18.93
2022-10-04T14:15:41.243Z,18.76
2022-10-04T14:18:09.899Z,18.90
2022-10-04T14:20:34.412Z,18.99
2022-10-04T14:22:58.786Z,19.09
2022-10-04T14:26:01.428Z,18.99
2022-10-04T14:28:34.956Z,19.15
2022-10-04T14:31:37.994Z,19.14
2022-10-04T14:34:14.675Z,19.12
2022-10-04T14:37:01.163Z,18.93
2022-10-04T14:39:54.147Z,19.11
2022-10-04T14:42:46.556Z,19.25
2022-10-04T14:45:17.328Z,19.41
2022-10-04T14:48:15.615Z,19.56
2022-10-04T14:50:57.745Z,19.51
2022-10-04T14:53:42.473Z,19.63
2022-10-04T14:56:33.037Z,19.54
2022-10-04T14:59:13.136Z,19.61
2022-10-04T15:01:39.683Z,19.63
2022-10-04T15:04:32.547Z,19.84
2022-10-04T15:07:01.961Z,19.95
2022-10-04T15:09:35.384Z,19.68
2022-10-04T15:12:27.141Z,19.54
2022-10-04T15:15:13.176Z,19.67
2022-10-04T15:17:40.964Z,19.59
2022-10-04T15:20:20.130Z,19.55
2022-10-04T15:22:47.464Z,19.73
2022-10-04T15:25:39.265Z,19.58
2022-10-04T15:28:06.613Z,19.43
2022-10-04T15:30:38.542Z,19.40
2022-10-04T15:33:17.414Z,19.49
2022-10-04T15:35:57.127Z,19.55
2022-10-04T15:38:35.587Z,19.25
2022-10-04T15:41:18.969Z,19.20
2022-10-04T15:44:13.276Z,19.19
2022-10-04T15:46:38.655Z,19.16
2022-10-04T15:49:16.968Z,19.23
2022-10-04T15:51:53.443Z,19.09
2022-10-04T15:54:33.719Z,19.15
2022-10-04T15:56:59.014Z,19.06
2022-10-04T15:59:32.752Z,19.20
2022-10-04T16:02:41.931Z,19.08
2022-10-04T16:05:15.030Z,18.92
2022-10-04T16:07:50.217Z,19.06
2022-10-04T16:10:14.932Z,18.95
2022-10-04T16:13:19.780Z,18.97
2022-10-04T16:15:48.170Z,18.79
2022-10-04T16:18:15.826Z,18.63
2022-10-04T16:20:55.430Z,18.70
2022-10-04T16:23:33.031Z,18.70
2022-10-04T16:25:56.841Z,18.75
2022-10-04T16:28:53.355Z,18.63
2022-10-04T16:31:52.616Z,18.70
2022-10-04T16:34:29.630Z,18.68
2022-10-04T16:36:55.227Z,18.50
2022-10-04T16:39:56.179Z,18.12
2022-10-04T16:42:23.624Z,18.17
2022-10-04T16:44:54.968Z,18.10
2022-10-04T16:47:30.975Z,17.92
2022-10-04T16:49:55.344Z,17.80
2022-10-04T16:52:44.157Z,17.79
2022-10-04T16:55:09.157Z,17.42
2022-10-04T16:57:30.735Z,17.38
2022-10-04T16:59:55.563Z,17.30
2022-10-04T17:02:17.023Z,17.21
2022-10-04T17:04:41.166Z,17.11
2022-10-04T17:07:23.353Z,16.99
2022-10-04T17:10:06.714Z,16.66
2022-10-04T17:12:50.068Z,16.67
2022-10-04T17:15:14.313Z,16.54
2022-10-04T17:17:44.968Z,16.25
2022-10-04T17:20:39.501Z,16.09
2022-10-04T17:23:20.608Z,16.10
2022-10-04T17:26:06.411Z,16.11
2022-10-04T17:28:48.127Z,15.96
2022-10-04T17:31:17.960Z,15.99
2022-10-04T17:34:08.525Z,15.91
2022-10-04T17:36:39.238Z,15.65
2022-10-04T17:39:34.533Z,15.57
2022-10-04T17:42:13.638Z,15.34
2022-10-04T17:44:56.779Z,15.25
2022-10-04T17:47:54.979Z,15.22
2022-10-04T17:50:43.203Z,15.29
2022-10-04T17:53:33.271Z,15.11
2022-10-04T17:55:58.830Z,15.06
2022-10-04T17:58:26.682Z,15.17
2022-10-04T18:01:25.768Z,15.06
2022-10-04T18:03:52.436Z,15.11
2022-10-04T18:06:31.594Z,14.98
2022-10-04T18:08:58.687Z,14.82
2022-10-04T18:11:47.136Z,14.75
2022-10-04T18:14:42.023Z,14.80
2022-10-04T18:17:06.308Z,14.82
2022-10-04T18:19:52.209Z,14.66
2022-10-04T18:22:16.598Z,14.55
2022-10-04T18:24:38.137Z,14.61
2022-10-04T18:27:04.999Z,14.73
2022-10-04T18:29:41.411Z,14.92
2022-10-04T18:32:17.629Z,14.58
2022-10-04T18:34:40.275Z,14.52
2022-10-04T18:37:27.296Z,14.51
2022-10-04T18:39:54.595Z,14.41
2022-10-04T18:42:29.289Z,14.36
2022-10-04T18:45:00.272Z,14.28
2022-10-04T18:47:41.329Z,14.33
2022-10-04T18:50:29.179Z,14.26
2022-10-04T18:53:33.126Z,14.30
2022-10-04T18:56:03.991Z,14.18
2022-10-04T18:59:04.418Z,14.20
2022-10-04T19:01:56.550Z,14.15
2022-10-04T19:04:31.207Z,14.03
2022-10-04T19:06:59.473Z,13.81
2022-10-04T19:09:37.863Z,13.99
2022-10-04T19:12:11.356Z,13.74
2022-10-04T19:15:02.413Z,13.87
2022-10-04T19:18:04.210Z,13.76
2022-10-04T19:20:57.903Z,13.80
2022-10-04T19:23:28.351Z,13.73
2022-10-04T19:26:17.717Z,13.71
2022-10-04T19:28:37.673Z,13.68
2022-10-04T19:31:13.337Z,13.67
2022-10-04T19:34:01.306Z,13.42
2022-10-04T19:36:45.854Z,13.34
2022-10-04T19:39:25.109Z,13.44
2022-10-04T19:41:59.384Z,13.35
2022-10-04T19:44:58.331Z,13.29
2022-10-04T19:47:29.667Z,13.32
2022-10-04T19:50:05.641Z,13.32
2022-10-04T19:52:55.880Z,13.34
2022-10-04T19:55:29.240Z,13.25
2022-10-04T19:58:11.902Z,13.20
2022-10-04T20:00:35.764Z,13.11
2022-10-04T20:02:57.300Z,13.17
2022-10-04T20:05:28.150Z,13.22
2022-10-04T20:07:51.924Z,13.19
2022-10-04T20:10:28.116Z,13.15
2022-10-04T20:13:12.343Z,13.04
2022-10-04T20:15:34.869Z,12.99
2022-10-04T20:17:56.558Z,13.03
2022-10-04T20:20:43.133Z,12.91
2022-10-04T20:23:07.616Z,12.76
2022-10-04T20:25:49.456Z,12.86
2022-10-04T20:28:32.253Z,12.73
2022-10-04T20:30:56.253Z,12.80
2022-10-04T20:33:33.160Z,12.82
2022-10-04T20:36:02.405Z,12.85
2022-10-04T20:39:00.444Z,12.90
2022-10-04T20:41:28.094Z,12.88
2022-10-04T20:43:58.164Z,12.88
2022-10-04T20:46:31.679Z,13.06
2022-10-04T20:48:54.364Z,13.07
2022-10-04T20:51:21.791Z,13.04
2022-10-04T20:53:47.507Z,12.96
2022-10-04T20:56:24.073Z,12.87
2022-10-04T20:58:52.088Z,12.85
2022-10-04T21:01:36.923Z,12.75
2022-10-04T21:04:30.804Z,12.67
2022-10-04T21:06:54.014Z,12.63
2022-10-04T21:09:15.484Z,12.64
2022-10-04T21:11:45.644Z,12.61
2022-10-04T21:14:31.117Z,12.43
2022-10-04T21:17:01.598Z,12.48
2022-10-04T21:19:33.440Z,12.44
2022-10-04T21:21:56.149Z,12.51
2022-10-04T21:24:40.612Z,12.54
2022-10-04T21:27:02.779Z,12.70
2022-10-04T21:29:24.324Z,12.77
2022-10-04T21:31:45.832Z,12.84
2022-10-04T21:34:07.311Z,12.64
2022-10-04T21:36:28.777Z,12.73
2022-10-04T21:38:50.313Z,12.57
2022-10-04T21:41:11.742Z,12.57
2022-10-04T21:43:33.714Z,12.66
2022-10-04T21:45:55.236Z,12.69
2022-10-04T21:48:17.609Z,12.47
2022-10-04T21:50:39.159Z,12.52
2022-10-04T21:53:00.701Z,12.55
2022-10-04T21:55:22.140Z,12.62
2022-10-04T21:57:43.597Z,12.28
2022-10-04T22:00:05.719Z,12.05
2022-10-04T22:02:27.239Z,11.95
2022-10-04T22:04:48.706Z,12.05
2022-10-04T22:07:10.683Z,12.01
2022-10-04T22:09:33.947Z,12.08
2022-10-04T22:11:55.483Z,11.97
2022-10-04T22:14:16.948Z,12.10
2022-10-04T22:16:38.539Z,12.22
2022-10-04T22:19:00.073Z,12.36
2022-10-04T22:21:21.660Z,12.42
2022-10-04T22:23:44.768Z,12.55
2022-10-04T22:26:14.158Z,12.43
2022-10-04T22:28:38.746Z,12.62
2022-10-04T22:31:00.267Z,12.51
2022-10-04T22:33:34.917Z,12.62
2022-10-04T22:36:12.635Z,12.69
2022-10-04T22:38:34.125Z,12.80
2022-10-04T22:40:55.608Z,12.74
2022-10-04T22:43:17.118Z,12.77
2022-10-04T22:45:38.719Z,12.68
2022-10-04T22:48:06.671Z,12.62
2022-10-04T22:50:33.873Z,12.69
2022-10-04T22:52:55.947Z,12.79
2022-10-04T22:55:18.876Z,12.80
2022-10-04T22:57:40.361Z,12.80
2022-10-04T23:00:02.302Z,12.73
2022-10-04T23:02:29.261Z,12.71
2022-10-04T23:04:53.830Z,12.66
2022-10-04T23:07:15.442Z,12.78
2022-10-04T23:09:36.940Z,12.76
2022-10-04T23:11:58.410Z,12.67
2022-10-04T23:14:19.864Z,12.63
2022-10-04T23:16:42.951Z,12.68
2022-10-04T23:19:13.451Z,12.76
2022-10-04T23:21:37.593Z,12.75
2022-10-04T23:24:07.531Z,12.75
2022-10-04T23:26:39.398Z,12.55
2022-10-04T23:29:01.253Z,12.50
2022-10-04T23:31:25.004Z,12.46
2022-10-04T23:33:46.516Z,12.27
2022-10-04T23:36:14.187Z,12.35
2022-10-04T23:38:35.744Z,12.43
2022-10-04T23:40:57.260Z,12.09
2022-10-04T23:43:24.998Z,12.16
2022-10-04T23:45:46.565Z,12.22
2022-10-04T23:48:11.087Z,12.18
2022-10-04T23:50:35.989Z,11.98
2022-10-04T23:53:04.456Z,11.94
2022-10-04T23:55:38.734Z,11.94
2022-10-04T23:58:00.790Z,12.02
